Terminal Aerodrome Forecast
Issued by NWS

Home | Current Version | Previous Version | Text Only | Print | Product List | Glossary On
Versions: 1 2 3 4 5 6 7 8 9 10 11 12 13 14 15 16 17 18 19 20 21 22 23 24 25 26 27 28 29 30 31 32
000
FTUS41 KBUF 251900 AAA
TAFIAG
TAF AMD
KIAG 251930Z 2520/2618 04005KT P6SM SCT025 SCT250
     FM260000 04006KT P6SM SCT030
     FM260700 07010KT P6SM BKN070
     FM261400 07013G19KT 4SM -SN OVC045
     FM261700 06013G19KT 2SM -SN OVC025=

USA.gov is the U.S. government's official web portal to all federal, state and local government web resources and services.